createdAt,value
2022-08-07T00:02:40.525Z,67.80
2022-08-07T00:07:24.325Z,68.24
2022-08-07T00:12:32.029Z,68.32
2022-08-07T00:17:36.374Z,68.21
2022-08-07T00:22:43.056Z,68.07
2022-08-07T00:27:56.546Z,68.47
2022-08-07T00:33:02.291Z,67.91
2022-08-07T00:38:06.628Z,68.73
2022-08-07T00:43:59.135Z,69.47
2022-08-07T00:48:35.552Z,69.89
2022-08-07T00:53:50.899Z,69.51
2022-08-07T00:58:59.589Z,68.97
2022-08-07T01:04:07.369Z,68.88
2022-08-07T01:09:11.083Z,69.79
2022-08-07T01:14:36.971Z,70.00
2022-08-07T01:19:52.349Z,69.22
2022-08-07T01:25:00.238Z,68.42
2022-08-07T01:30:07.569Z,69.60
2022-08-07T01:35:17.165Z,70.46
2022-08-07T01:40:25.201Z,70.94
2022-08-07T01:45:36.914Z,71.35
2022-08-07T01:50:50.033Z,71.18
2022-08-07T01:56:04.478Z,71.15
2022-08-07T02:01:25.595Z,70.81
2022-08-07T02:06:43.214Z,70.62
2022-08-07T02:12:03.288Z,70.57
2022-08-07T02:17:24.879Z,70.32
2022-08-07T02:22:33.359Z,69.86
2022-08-07T02:27:41.492Z,69.71
2022-08-07T02:33:03.728Z,69.75
2022-08-07T02:38:16.979Z,70.04
2022-08-07T02:43:28.210Z,69.85
2022-08-07T02:48:32.619Z,69.61
2022-08-07T02:53:42.745Z,69.26
2022-08-07T02:58:54.265Z,69.17
2022-08-07T03:04:03.242Z,69.27
2022-08-07T03:09:11.597Z,69.33
2022-08-07T03:14:16.188Z,69.21
2022-08-07T03:19:20.610Z,69.25
2022-08-07T03:24:26.689Z,69.18
2022-08-07T03:29:49.519Z,69.11
2022-08-07T03:35:00.838Z,69.38
2022-08-07T03:40:23.871Z,69.50
2022-08-07T03:45:35.236Z,70.24
2022-08-07T03:50:51.971Z,70.51
2022-08-07T03:56:03.996Z,71.10
2022-08-07T04:01:11.772Z,72.24
2022-08-07T04:06:36.087Z,72.51
2022-08-07T04:12:27.436Z,72.58
2022-08-07T04:17:05.028Z,72.46
2022-08-07T04:22:28.529Z,71.96
2022-08-07T04:27:35.802Z,71.82
2022-08-07T04:32:44.909Z,72.13
2022-08-07T04:38:03.120Z,72.43
2022-08-07T04:43:09.301Z,72.17
2022-08-07T04:48:33.339Z,71.92
2022-08-07T04:54:05.349Z,71.60
2022-08-07T05:00:10.702Z,71.08
2022-08-07T05:05:51.742Z,70.76
2022-08-07T05:11:02.569Z,70.46
2022-08-07T05:16:14.952Z,70.63
2022-08-07T05:22:00.380Z,70.46
2022-08-07T05:26:51.234Z,70.44
2022-08-07T05:31:56.475Z,70.50
2022-08-07T05:37:01.734Z,70.21
2022-08-07T05:42:12.361Z,70.17
2022-08-07T05:47:20.884Z,70.13
2022-08-07T05:52:42.136Z,69.84
2022-08-07T05:57:48.215Z,69.86
2022-08-07T06:02:56.502Z,69.89
2022-08-07T06:08:30.170Z,70.47
2022-08-07T06:14:10.820Z,70.58
2022-08-07T06:18:51.870Z,70.10
2022-08-07T06:24:45.378Z,69.82
2022-08-07T06:29:29.974Z,69.85
2022-08-07T06:34:33.110Z,69.90
2022-08-07T06:40:15.952Z,69.17
2022-08-07T06:45:01.054Z,68.24
2022-08-07T06:50:05.640Z,68.17
2022-08-07T06:55:32.464Z,67.65
2022-08-07T07:00:48.247Z,67.01
2022-08-07T07:06:04.893Z,66.46
2022-08-07T07:11:13.911Z,66.06
2022-08-07T07:16:49.780Z,64.83
2022-08-07T07:22:05.053Z,64.61
2022-08-07T07:27:24.505Z,64.42
2022-08-07T07:32:42.693Z,63.38
2022-08-07T07:38:02.175Z,62.97
2022-08-07T07:43:15.149Z,63.15
2022-08-07T07:48:35.822Z,62.66
2022-08-07T07:53:51.513Z,61.64
2022-08-07T07:58:58.673Z,61.11
2022-08-07T08:04:11.299Z,61.13
2022-08-07T08:09:22.728Z,59.67
2022-08-07T08:25:41.731Z,58.53
2022-08-07T08:30:51.467Z,56.76
2022-08-07T08:35:59.126Z,56.12
2022-08-07T08:41:18.754Z,55.70
2022-08-07T08:46:38.826Z,54.01
2022-08-07T08:52:24.108Z,53.94
2022-08-07T08:57:44.002Z,53.58
2022-08-07T09:03:00.831Z,53.56
2022-08-07T09:08:24.391Z,53.22
2022-08-07T09:13:55.378Z,51.94
2022-08-07T09:19:50.949Z,50.97
2022-08-07T09:25:17.359Z,49.40
2022-08-07T09:30:28.251Z,48.10
2022-08-07T09:36:02.770Z,48.76
2022-08-07T09:41:28.534Z,47.00
2022-08-07T09:47:55.261Z,46.79
2022-08-07T09:53:06.026Z,46.97
2022-08-07T09:58:48.845Z,47.40
2022-08-07T10:04:14.217Z,48.20
2022-08-07T10:10:06.930Z,48.47
2022-08-07T10:15:30.613Z,48.54
2022-08-07T10:22:14.559Z,47.19
2022-08-07T10:27:10.552Z,46.10
2022-08-07T10:32:53.574Z,46.51
2022-08-07T10:38:48.770Z,46.01
2022-08-07T10:44:38.440Z,45.74
2022-08-07T10:49:55.723Z,43.26
2022-08-07T10:55:26.531Z,41.55
2022-08-07T11:00:56.268Z,41.03
2022-08-07T11:06:18.247Z,44.26
2022-08-07T11:11:35.861Z,46.08
2022-08-07T11:16:51.283Z,45.60
2022-08-07T11:22:26.612Z,44.22
2022-08-07T11:28:15.604Z,41.53
2022-08-07T11:33:53.353Z,39.71
2022-08-07T11:39:59.220Z,40.01
2022-08-07T11:44:58.025Z,41.41
2022-08-07T11:50:44.662Z,43.99
2022-08-07T11:56:35.597Z,45.03
2022-08-07T12:02:20.977Z,46.12
2022-08-07T12:07:53.308Z,46.33
2022-08-07T12:13:37.176Z,44.82
2022-08-07T12:18:46.122Z,47.10
2022-08-07T12:24:37.703Z,46.89
2022-08-07T12:29:53.644Z,47.42
2022-08-07T12:35:03.151Z,47.34
2022-08-07T12:40:36.206Z,48.10
2022-08-07T12:46:06.879Z,49.91
2022-08-07T12:51:19.727Z,48.29
2022-08-07T12:56:31.940Z,48.12
2022-08-07T13:02:16.698Z,47.27
2022-08-07T13:08:12.081Z,47.94
2022-08-07T13:13:46.954Z,46.46
2022-08-07T13:19:50.471Z,46.13
2022-08-07T13:25:03.368Z,45.69
2022-08-07T13:30:18.930Z,46.31
2022-08-07T13:35:59.565Z,44.77
2022-08-07T13:41:41.332Z,43.70
2022-08-07T13:46:49.570Z,40.35
2022-08-07T13:52:05.155Z,39.56
2022-08-07T13:57:26.381Z,40.04
2022-08-07T14:02:40.898Z,39.65
2022-08-07T14:07:59.995Z,39.97
2022-08-07T14:13:07.457Z,40.45
2022-08-07T14:18:28.394Z,41.74
2022-08-07T14:24:00.407Z,43.17
2022-08-07T14:30:04.775Z,44.04
2022-08-07T14:34:34.173Z,44.99
2022-08-07T14:40:16.724Z,45.08
2022-08-07T14:50:47.293Z,44.88
2022-08-07T14:56:02.019Z,44.78
2022-08-07T15:01:42.441Z,43.72
2022-08-07T15:06:50.401Z,43.02
2022-08-07T15:12:26.340Z,43.60
2022-08-07T15:18:03.488Z,44.40
2022-08-07T15:28:51.705Z,46.56
2022-08-07T15:34:04.432Z,46.65
2022-08-07T15:39:16.385Z,45.58
2022-08-07T15:44:23.800Z,43.24
2022-08-07T15:50:05.530Z,42.62
2022-08-07T15:55:02.818Z,42.90
2022-08-07T16:00:08.147Z,42.58
2022-08-07T16:05:19.953Z,41.90
2022-08-07T16:10:27.469Z,43.06
2022-08-07T16:15:57.883Z,43.35
2022-08-07T16:22:05.805Z,42.51
2022-08-07T16:27:24.743Z,41.90
2022-08-07T16:32:46.503Z,41.58
2022-08-07T16:38:59.868Z,42.85
2022-08-07T16:45:15.596Z,43.95
2022-08-07T16:50:39.082Z,44.37
2022-08-07T16:56:06.978Z,43.56
2022-08-07T17:01:43.070Z,43.22
2022-08-07T17:07:02.843Z,43.38
2022-08-07T17:12:44.251Z,43.46
2022-08-07T17:17:47.979Z,44.16
2022-08-07T17:24:29.859Z,45.28
2022-08-07T17:30:16.081Z,46.76
2022-08-07T17:35:50.811Z,47.72
2022-08-07T17:42:02.700Z,48.40
2022-08-07T17:47:38.506Z,49.60
2022-08-07T17:53:06.153Z,50.32
2022-08-07T17:58:30.083Z,50.90
2022-08-07T18:04:04.314Z,51.11
2022-08-07T18:10:05.093Z,51.68
2022-08-07T18:15:08.480Z,52.17
2022-08-07T18:21:07.958Z,53.04
2022-08-07T18:26:01.597Z,53.53
2022-08-07T18:31:18.817Z,53.96
2022-08-07T18:36:43.642Z,54.83
2022-08-07T18:42:29.027Z,55.77
2022-08-07T18:48:00.892Z,56.19
2022-08-07T18:53:58.696Z,56.78
2022-08-07T18:59:47.232Z,56.90
2022-08-07T19:06:01.950Z,57.22
2022-08-07T19:10:57.025Z,58.03
2022-08-07T19:16:43.041Z,58.44
2022-08-07T19:21:56.275Z,58.73
2022-08-07T19:28:58.071Z,58.93
2022-08-07T19:32:45.337Z,59.62
2022-08-07T19:37:59.689Z,60.04
2022-08-07T19:43:21.920Z,60.40
2022-08-07T19:49:09.352Z,60.96
2022-08-07T19:54:34.189Z,61.10
2022-08-07T19:59:42.209Z,61.46
2022-08-07T20:04:49.382Z,61.49
2022-08-07T20:10:37.900Z,61.81
2022-08-07T20:15:33.151Z,62.21
2022-08-07T20:20:42.164Z,62.49
2022-08-07T20:26:45.283Z,62.27
2022-08-07T20:31:53.750Z,62.38
2022-08-07T20:36:59.497Z,62.87
2022-08-07T20:42:11.159Z,62.45
2022-08-07T20:47:25.064Z,62.85
2022-08-07T20:52:52.336Z,62.65
2022-08-07T20:58:03.639Z,62.97
2022-08-07T21:03:12.174Z,63.60
2022-08-07T21:08:32.385Z,63.49
2022-08-07T21:14:20.087Z,63.33
2022-08-07T21:19:19.503Z,63.12
2022-08-07T21:24:57.075Z,63.31
2022-08-07T21:30:11.968Z,62.96
2022-08-07T21:36:05.423Z,63.08
2022-08-07T21:41:24.731Z,63.52
2022-08-07T21:46:46.790Z,63.79
2022-08-07T21:52:17.949Z,63.73
2022-08-07T21:58:30.224Z,64.40
2022-08-07T22:03:42.807Z,63.88
2022-08-07T22:08:57.267Z,64.03
2022-08-07T22:14:04.990Z,64.50
2022-08-07T22:19:38.866Z,63.53
2022-08-07T22:24:57.481Z,64.00
2022-08-07T22:30:15.671Z,64.43
2022-08-07T22:35:19.469Z,64.19
2022-08-07T22:40:55.037Z,64.18
2022-08-07T22:46:46.822Z,64.31
2022-08-07T22:52:19.556Z,65.17
2022-08-07T22:58:38.463Z,64.89
2022-08-07T23:04:16.362Z,64.59
2022-08-07T23:10:03.734Z,64.96
2022-08-07T23:16:06.832Z,65.14
2022-08-07T23:21:16.349Z,65.29
2022-08-07T23:26:26.467Z,65.36
2022-08-07T23:34:21.734Z,65.30
2022-08-07T23:38:19.260Z,65.15
2022-08-07T23:44:29.376Z,65.54
2022-08-07T23:50:30.466Z,65.69
2022-08-07T23:55:55.546Z,65.71
